sensor_id;sensor_type;location;lat;lon;timestamp;P1;durP1;ratioP1;P2;durP2;ratioP2
16892;SDS011;8563;52.242;9.098;2023-01-29T00:00:25;14.87;;;13.10;;
16892;SDS011;8563;52.242;9.098;2023-01-29T00:02:58;17.93;;;13.77;;
16892;SDS011;8563;52.242;9.098;2023-01-29T00:05:30;14.07;;;12.43;;
16892;SDS011;8563;52.242;9.098;2023-01-29T00:08:03;17.57;;;14.10;;
16892;SDS011;8563;52.242;9.098;2023-01-29T00:10:36;17.23;;;13.93;;
16892;SDS011;8563;52.242;9.098;2023-01-29T00:13:09;15.90;;;13.70;;
16892;SDS011;8563;52.242;9.098;2023-01-29T00:15:41;15.70;;;13.77;;
16892;SDS011;8563;52.242;9.098;2023-01-29T00:18:13;17.03;;;14.17;;
16892;SDS011;8563;52.242;9.098;2023-01-29T00:20:45;19.67;;;14.93;;
16892;SDS011;8563;52.242;9.098;2023-01-29T00:23:17;16.07;;;13.97;;
16892;SDS011;8563;52.242;9.098;2023-01-29T00:25:51;18.00;;;14.43;;
16892;SDS011;8563;52.242;9.098;2023-01-29T00:28:23;15.77;;;13.80;;
16892;SDS011;8563;52.242;9.098;2023-01-29T00:30:55;15.50;;;13.53;;
16892;SDS011;8563;52.242;9.098;2023-01-29T00:33:28;16.00;;;13.90;;
16892;SDS011;8563;52.242;9.098;2023-01-29T00:36:01;18.07;;;14.33;;
16892;SDS011;8563;52.242;9.098;2023-01-29T00:38:33;15.20;;;13.13;;
16892;SDS011;8563;52.242;9.098;2023-01-29T00:41:08;16.83;;;14.37;;
16892;SDS011;8563;52.242;9.098;2023-01-29T00:44:00;16.90;;;14.53;;
16892;SDS011;8563;52.242;9.098;2023-01-29T00:46:49;18.40;;;14.50;;
16892;SDS011;8563;52.242;9.098;2023-01-29T00:49:22;16.30;;;13.80;;
16892;SDS011;8563;52.242;9.098;2023-01-29T00:51:55;17.60;;;14.63;;
16892;SDS011;8563;52.242;9.098;2023-01-29T00:54:44;18.37;;;15.23;;
16892;SDS011;8563;52.242;9.098;2023-01-29T00:57:17;18.20;;;14.73;;
16892;SDS011;8563;52.242;9.098;2023-01-29T00:59:50;17.63;;;15.20;;
16892;SDS011;8563;52.242;9.098;2023-01-29T01:02:22;19.13;;;15.50;;
16892;SDS011;8563;52.242;9.098;2023-01-29T01:05:13;19.70;;;15.33;;
16892;SDS011;8563;52.242;9.098;2023-01-29T01:07:48;20.53;;;14.97;;
16892;SDS011;8563;52.242;9.098;2023-01-29T01:10:24;18.73;;;15.43;;
16892;SDS011;8563;52.242;9.098;2023-01-29T01:12:58;20.23;;;15.63;;
16892;SDS011;8563;52.242;9.098;2023-01-29T01:15:33;18.80;;;14.83;;
16892;SDS011;8563;52.242;9.098;2023-01-29T01:18:10;18.00;;;14.77;;
16892;SDS011;8563;52.242;9.098;2023-01-29T01:20:44;17.43;;;14.80;;
16892;SDS011;8563;52.242;9.098;2023-01-29T01:23:20;19.43;;;15.30;;
16892;SDS011;8563;52.242;9.098;2023-01-29T01:25:53;19.07;;;14.63;;
16892;SDS011;8563;52.242;9.098;2023-01-29T01:28:27;18.57;;;14.80;;
16892;SDS011;8563;52.242;9.098;2023-01-29T01:31:06;18.67;;;14.93;;
16892;SDS011;8563;52.242;9.098;2023-01-29T01:33:39;16.73;;;13.83;;
16892;SDS011;8563;52.242;9.098;2023-01-29T01:36:12;19.27;;;15.50;;
16892;SDS011;8563;52.242;9.098;2023-01-29T01:38:45;17.67;;;14.87;;
16892;SDS011;8563;52.242;9.098;2023-01-29T01:41:18;16.87;;;14.07;;
16892;SDS011;8563;52.242;9.098;2023-01-29T01:43:55;19.23;;;15.03;;
16892;SDS011;8563;52.242;9.098;2023-01-29T01:46:29;18.97;;;15.13;;
16892;SDS011;8563;52.242;9.098;2023-01-29T01:49:03;17.77;;;14.60;;
16892;SDS011;8563;52.242;9.098;2023-01-29T01:51:42;20.27;;;15.53;;
16892;SDS011;8563;52.242;9.098;2023-01-29T01:54:17;18.70;;;15.27;;
16892;SDS011;8563;52.242;9.098;2023-01-29T01:56:55;18.47;;;14.57;;
16892;SDS011;8563;52.242;9.098;2023-01-29T01:59:40;16.63;;;14.17;;
16892;SDS011;8563;52.242;9.098;2023-01-29T02:02:17;19.40;;;14.93;;
16892;SDS011;8563;52.242;9.098;2023-01-29T02:05:07;17.40;;;13.47;;
16892;SDS011;8563;52.242;9.098;2023-01-29T02:08:00;15.77;;;13.47;;
16892;SDS011;8563;52.242;9.098;2023-01-29T02:10:49;16.93;;;13.90;;
16892;SDS011;8563;52.242;9.098;2023-01-29T02:13:23;18.50;;;14.43;;
16892;SDS011;8563;52.242;9.098;2023-01-29T02:15:56;16.77;;;14.23;;
16892;SDS011;8563;52.242;9.098;2023-01-29T02:18:28;17.57;;;14.07;;
16892;SDS011;8563;52.242;9.098;2023-01-29T02:21:16;17.87;;;14.13;;
16892;SDS011;8563;52.242;9.098;2023-01-29T02:24:02;17.30;;;13.00;;
16892;SDS011;8563;52.242;9.098;2023-01-29T02:26:49;18.17;;;13.77;;
16892;SDS011;8563;52.242;9.098;2023-01-29T02:29:36;17.23;;;13.53;;
16892;SDS011;8563;52.242;9.098;2023-01-29T02:32:19;17.93;;;13.37;;
16892;SDS011;8563;52.242;9.098;2023-01-29T02:35:00;17.70;;;13.63;;
16892;SDS011;8563;52.242;9.098;2023-01-29T02:38:13;20.17;;;14.23;;
16892;SDS011;8563;52.242;9.098;2023-01-29T02:40:53;18.70;;;14.23;;
16892;SDS011;8563;52.242;9.098;2023-01-29T02:43:29;15.53;;;12.67;;
16892;SDS011;8563;52.242;9.098;2023-01-29T02:46:11;16.37;;;13.00;;
16892;SDS011;8563;52.242;9.098;2023-01-29T02:48:52;16.80;;;12.97;;
16892;SDS011;8563;52.242;9.098;2023-01-29T02:51:29;19.90;;;13.60;;
16892;SDS011;8563;52.242;9.098;2023-01-29T02:54:07;18.10;;;13.70;;
16892;SDS011;8563;52.242;9.098;2023-01-29T02:56:46;17.97;;;13.37;;
16892;SDS011;8563;52.242;9.098;2023-01-29T02:59:23;18.97;;;13.80;;
16892;SDS011;8563;52.242;9.098;2023-01-29T03:02:02;19.97;;;14.47;;
16892;SDS011;8563;52.242;9.098;2023-01-29T03:04:40;17.27;;;13.77;;
16892;SDS011;8563;52.242;9.098;2023-01-29T03:07:17;19.43;;;13.97;;
16892;SDS011;8563;52.242;9.098;2023-01-29T03:10:08;19.77;;;14.30;;
16892;SDS011;8563;52.242;9.098;2023-01-29T03:12:46;18.33;;;14.07;;
16892;SDS011;8563;52.242;9.098;2023-01-29T03:15:25;19.30;;;14.87;;
16892;SDS011;8563;52.242;9.098;2023-01-29T03:18:20;19.93;;;14.40;;
16892;SDS011;8563;52.242;9.098;2023-01-29T03:21:01;19.73;;;15.20;;
16892;SDS011;8563;52.242;9.098;2023-01-29T03:23:56;19.13;;;14.90;;
16892;SDS011;8563;52.242;9.098;2023-01-29T03:26:48;20.57;;;15.83;;
16892;SDS011;8563;52.242;9.098;2023-01-29T03:29:43;18.70;;;14.60;;
16892;SDS011;8563;52.242;9.098;2023-01-29T03:32:50;21.43;;;15.20;;
16892;SDS011;8563;52.242;9.098;2023-01-29T03:35:26;19.17;;;15.30;;
16892;SDS011;8563;52.242;9.098;2023-01-29T03:38:05;21.10;;;16.60;;
16892;SDS011;8563;52.242;9.098;2023-01-29T03:40:42;19.80;;;15.37;;
16892;SDS011;8563;52.242;9.098;2023-01-29T03:43:22;20.37;;;15.20;;
16892;SDS011;8563;52.242;9.098;2023-01-29T03:46:03;19.50;;;15.67;;
16892;SDS011;8563;52.242;9.098;2023-01-29T03:48:40;21.30;;;16.13;;
16892;SDS011;8563;52.242;9.098;2023-01-29T03:51:24;20.40;;;15.43;;
16892;SDS011;8563;52.242;9.098;2023-01-29T03:54:03;21.10;;;16.00;;
16892;SDS011;8563;52.242;9.098;2023-01-29T03:56:43;19.43;;;15.03;;
16892;SDS011;8563;52.242;9.098;2023-01-29T03:59:30;20.80;;;15.63;;
16892;SDS011;8563;52.242;9.098;2023-01-29T04:02:28;20.27;;;14.97;;
16892;SDS011;8563;52.242;9.098;2023-01-29T04:05:16;22.57;;;17.33;;
16892;SDS011;8563;52.242;9.098;2023-01-29T04:08:05;23.00;;;17.57;;
16892;SDS011;8563;52.242;9.098;2023-01-29T04:10:43;20.20;;;15.77;;
16892;SDS011;8563;52.242;9.098;2023-01-29T04:13:18;23.03;;;16.50;;
16892;SDS011;8563;52.242;9.098;2023-01-29T04:15:53;22.57;;;17.50;;
16892;SDS011;8563;52.242;9.098;2023-01-29T04:18:49;27.17;;;18.67;;
16892;SDS011;8563;52.242;9.098;2023-01-29T04:21:28;23.07;;;18.27;;
16892;SDS011;8563;52.242;9.098;2023-01-29T04:24:04;26.07;;;19.10;;
16892;SDS011;8563;52.242;9.098;2023-01-29T04:29:32;24.47;;;18.63;;
16892;SDS011;8563;52.242;9.098;2023-01-29T04:32:14;23.87;;;17.60;;
16892;SDS011;8563;52.242;9.098;2023-01-29T04:34:55;26.07;;;18.90;;
16892;SDS011;8563;52.242;9.098;2023-01-29T04:37:41;23.60;;;18.00;;
16892;SDS011;8563;52.242;9.098;2023-01-29T04:40:20;28.60;;;19.40;;
16892;SDS011;8563;52.242;9.098;2023-01-29T04:43:01;24.50;;;18.83;;
16892;SDS011;8563;52.242;9.098;2023-01-29T04:45:38;25.17;;;19.23;;
16892;SDS011;8563;52.242;9.098;2023-01-29T04:48:21;25.17;;;18.50;;
16892;SDS011;8563;52.242;9.098;2023-01-29T04:50:57;24.50;;;18.90;;
16892;SDS011;8563;52.242;9.098;2023-01-29T04:53:40;23.97;;;18.67;;
16892;SDS011;8563;52.242;9.098;2023-01-29T04:56:20;27.10;;;20.40;;
16892;SDS011;8563;52.242;9.098;2023-01-29T04:58:58;26.97;;;19.57;;
16892;SDS011;8563;52.242;9.098;2023-01-29T05:01:35;26.67;;;19.53;;
16892;SDS011;8563;52.242;9.098;2023-01-29T05:04:09;28.27;;;19.77;;
16892;SDS011;8563;52.242;9.098;2023-01-29T05:06:44;25.83;;;19.77;;
16892;SDS011;8563;52.242;9.098;2023-01-29T05:09:17;26.50;;;20.03;;
16892;SDS011;8563;52.242;9.098;2023-01-29T05:11:51;24.40;;;18.63;;
16892;SDS011;8563;52.242;9.098;2023-01-29T05:14:25;24.87;;;18.63;;
16892;SDS011;8563;52.242;9.098;2023-01-29T05:17:00;25.90;;;19.07;;
16892;SDS011;8563;52.242;9.098;2023-01-29T05:19:36;27.43;;;19.80;;
16892;SDS011;8563;52.242;9.098;2023-01-29T05:22:08;27.17;;;19.40;;
16892;SDS011;8563;52.242;9.098;2023-01-29T05:24:43;25.63;;;18.90;;
16892;SDS011;8563;52.242;9.098;2023-01-29T05:27:18;25.70;;;19.17;;
16892;SDS011;8563;52.242;9.098;2023-01-29T05:30:10;24.40;;;18.13;;
16892;SDS011;8563;52.242;9.098;2023-01-29T05:32:43;27.07;;;19.60;;
16892;SDS011;8563;52.242;9.098;2023-01-29T05:35:15;26.80;;;18.63;;
16892;SDS011;8563;52.242;9.098;2023-01-29T05:37:47;24.63;;;18.47;;
16892;SDS011;8563;52.242;9.098;2023-01-29T05:40:19;26.10;;;20.20;;
16892;SDS011;8563;52.242;9.098;2023-01-29T05:42:53;27.90;;;20.30;;
16892;SDS011;8563;52.242;9.098;2023-01-29T05:45:25;23.63;;;18.43;;
16892;SDS011;8563;52.242;9.098;2023-01-29T05:47:57;29.63;;;19.83;;
16892;SDS011;8563;52.242;9.098;2023-01-29T05:50:30;25.60;;;20.13;;
16892;SDS011;8563;52.242;9.098;2023-01-29T05:53:02;28.43;;;20.37;;
16892;SDS011;8563;52.242;9.098;2023-01-29T05:55:35;30.40;;;21.70;;
16892;SDS011;8563;52.242;9.098;2023-01-29T05:58:08;32.10;;;21.93;;
16892;SDS011;8563;52.242;9.098;2023-01-29T06:00:40;29.60;;;22.23;;
16892;SDS011;8563;52.242;9.098;2023-01-29T06:03:12;28.87;;;21.40;;
16892;SDS011;8563;52.242;9.098;2023-01-29T06:05:45;29.10;;;21.83;;
16892;SDS011;8563;52.242;9.098;2023-01-29T06:08:17;28.97;;;22.10;;
16892;SDS011;8563;52.242;9.098;2023-01-29T06:10:49;27.57;;;21.33;;
16892;SDS011;8563;52.242;9.098;2023-01-29T06:13:22;29.87;;;22.17;;
16892;SDS011;8563;52.242;9.098;2023-01-29T06:15:54;27.10;;;20.80;;
16892;SDS011;8563;52.242;9.098;2023-01-29T06:18:27;31.37;;;22.97;;
16892;SDS011;8563;52.242;9.098;2023-01-29T06:20:59;27.50;;;21.33;;
16892;SDS011;8563;52.242;9.098;2023-01-29T06:23:32;30.77;;;23.03;;
16892;SDS011;8563;52.242;9.098;2023-01-29T06:26:05;28.67;;;21.50;;
16892;SDS011;8563;52.242;9.098;2023-01-29T06:28:40;31.20;;;23.20;;
16892;SDS011;8563;52.242;9.098;2023-01-29T06:31:13;29.97;;;21.47;;
16892;SDS011;8563;52.242;9.098;2023-01-29T06:33:45;29.90;;;22.43;;
16892;SDS011;8563;52.242;9.098;2023-01-29T06:36:17;29.60;;;20.97;;
16892;SDS011;8563;52.242;9.098;2023-01-29T06:38:49;27.57;;;21.13;;
16892;SDS011;8563;52.242;9.098;2023-01-29T06:41:21;27.33;;;21.40;;
16892;SDS011;8563;52.242;9.098;2023-01-29T06:43:56;28.80;;;21.70;;
16892;SDS011;8563;52.242;9.098;2023-01-29T06:46:28;31.27;;;23.17;;
16892;SDS011;8563;52.242;9.098;2023-01-29T06:49:00;32.10;;;22.87;;
16892;SDS011;8563;52.242;9.098;2023-01-29T06:51:32;28.70;;;21.80;;
16892;SDS011;8563;52.242;9.098;2023-01-29T06:54:04;32.00;;;23.67;;
16892;SDS011;8563;52.242;9.098;2023-01-29T06:56:37;30.87;;;22.80;;
16892;SDS011;8563;52.242;9.098;2023-01-29T06:59:11;28.77;;;21.70;;
16892;SDS011;8563;52.242;9.098;2023-01-29T07:01:43;31.43;;;22.13;;
16892;SDS011;8563;52.242;9.098;2023-01-29T07:04:15;32.73;;;22.70;;
16892;SDS011;8563;52.242;9.098;2023-01-29T07:06:48;31.33;;;22.97;;
16892;SDS011;8563;52.242;9.098;2023-01-29T07:09:20;34.00;;;23.40;;
16892;SDS011;8563;52.242;9.098;2023-01-29T07:11:52;30.80;;;23.07;;
16892;SDS011;8563;52.242;9.098;2023-01-29T07:14:25;32.67;;;22.57;;
16892;SDS011;8563;52.242;9.098;2023-01-29T07:16:58;30.20;;;21.93;;
16892;SDS011;8563;52.242;9.098;2023-01-29T07:19:30;31.73;;;23.33;;
16892;SDS011;8563;52.242;9.098;2023-01-29T07:22:02;33.70;;;23.00;;
16892;SDS011;8563;52.242;9.098;2023-01-29T07:24:35;31.37;;;23.57;;
16892;SDS011;8563;52.242;9.098;2023-01-29T07:27:07;33.73;;;24.03;;
16892;SDS011;8563;52.242;9.098;2023-01-29T07:29:40;28.77;;;22.10;;
16892;SDS011;8563;52.242;9.098;2023-01-29T07:32:12;29.57;;;20.83;;
16892;SDS011;8563;52.242;9.098;2023-01-29T07:34:44;30.67;;;22.60;;
16892;SDS011;8563;52.242;9.098;2023-01-29T07:37:17;28.23;;;21.67;;
16892;SDS011;8563;52.242;9.098;2023-01-29T07:39:49;31.90;;;22.37;;
16892;SDS011;8563;52.242;9.098;2023-01-29T07:42:21;32.63;;;22.53;;
16892;SDS011;8563;52.242;9.098;2023-01-29T07:44:55;31.00;;;22.63;;
16892;SDS011;8563;52.242;9.098;2023-01-29T07:47:27;32.37;;;21.90;;
16892;SDS011;8563;52.242;9.098;2023-01-29T07:49:59;30.83;;;22.30;;
16892;SDS011;8563;52.242;9.098;2023-01-29T07:52:32;28.17;;;21.77;;
16892;SDS011;8563;52.242;9.098;2023-01-29T07:55:04;30.63;;;22.17;;
16892;SDS011;8563;52.242;9.098;2023-01-29T07:57:37;30.60;;;22.63;;
16892;SDS011;8563;52.242;9.098;2023-01-29T08:00:11;31.40;;;22.73;;
16892;SDS011;8563;52.242;9.098;2023-01-29T08:02:44;31.20;;;22.80;;
16892;SDS011;8563;52.242;9.098;2023-01-29T08:05:16;29.07;;;22.27;;
16892;SDS011;8563;52.242;9.098;2023-01-29T08:07:51;29.93;;;22.30;;
16892;SDS011;8563;52.242;9.098;2023-01-29T08:10:24;31.57;;;23.57;;
16892;SDS011;8563;52.242;9.098;2023-01-29T08:12:57;31.03;;;22.87;;
16892;SDS011;8563;52.242;9.098;2023-01-29T08:15:31;30.47;;;22.37;;
16892;SDS011;8563;52.242;9.098;2023-01-29T08:18:04;30.13;;;21.80;;
16892;SDS011;8563;52.242;9.098;2023-01-29T08:20:36;31.13;;;22.90;;
16892;SDS011;8563;52.242;9.098;2023-01-29T08:23:10;33.57;;;23.53;;
16892;SDS011;8563;52.242;9.098;2023-01-29T08:25:44;31.30;;;23.43;;
16892;SDS011;8563;52.242;9.098;2023-01-29T08:28:16;32.93;;;22.87;;
16892;SDS011;8563;52.242;9.098;2023-01-29T08:30:50;32.07;;;22.60;;
16892;SDS011;8563;52.242;9.098;2023-01-29T08:33:22;31.47;;;22.53;;
16892;SDS011;8563;52.242;9.098;2023-01-29T08:35:58;33.20;;;24.23;;
16892;SDS011;8563;52.242;9.098;2023-01-29T08:38:30;32.30;;;23.33;;
16892;SDS011;8563;52.242;9.098;2023-01-29T08:41:02;33.07;;;22.87;;
16892;SDS011;8563;52.242;9.098;2023-01-29T08:43:34;29.67;;;22.53;;
16892;SDS011;8563;52.242;9.098;2023-01-29T08:46:09;29.57;;;22.30;;
16892;SDS011;8563;52.242;9.098;2023-01-29T08:48:41;32.00;;;23.30;;
16892;SDS011;8563;52.242;9.098;2023-01-29T08:51:13;30.97;;;23.07;;
16892;SDS011;8563;52.242;9.098;2023-01-29T08:53:45;30.87;;;21.83;;
16892;SDS011;8563;52.242;9.098;2023-01-29T08:56:17;31.73;;;22.57;;
16892;SDS011;8563;52.242;9.098;2023-01-29T08:58:49;28.90;;;21.73;;
16892;SDS011;8563;52.242;9.098;2023-01-29T09:01:23;28.00;;;20.77;;
16892;SDS011;8563;52.242;9.098;2023-01-29T09:03:55;29.33;;;21.47;;
16892;SDS011;8563;52.242;9.098;2023-01-29T09:06:27;26.90;;;20.03;;
16892;SDS011;8563;52.242;9.098;2023-01-29T09:09:00;28.90;;;21.90;;
16892;SDS011;8563;52.242;9.098;2023-01-29T09:11:32;31.57;;;21.63;;
16892;SDS011;8563;52.242;9.098;2023-01-29T09:14:04;29.20;;;22.00;;
16892;SDS011;8563;52.242;9.098;2023-01-29T09:16:38;32.83;;;22.87;;
16892;SDS011;8563;52.242;9.098;2023-01-29T09:19:10;31.00;;;23.07;;
16892;SDS011;8563;52.242;9.098;2023-01-29T09:21:44;31.97;;;22.23;;
16892;SDS011;8563;52.242;9.098;2023-01-29T09:24:16;31.00;;;22.17;;
16892;SDS011;8563;52.242;9.098;2023-01-29T09:26:48;30.60;;;22.27;;
16892;SDS011;8563;52.242;9.098;2023-01-29T09:29:21;29.73;;;22.37;;
16892;SDS011;8563;52.242;9.098;2023-01-29T09:31:55;32.30;;;22.27;;
16892;SDS011;8563;52.242;9.098;2023-01-29T09:34:27;29.13;;;21.10;;
16892;SDS011;8563;52.242;9.098;2023-01-29T09:36:59;30.40;;;21.60;;
16892;SDS011;8563;52.242;9.098;2023-01-29T09:39:31;30.73;;;21.17;;
16892;SDS011;8563;52.242;9.098;2023-01-29T09:42:06;27.67;;;21.03;;
16892;SDS011;8563;52.242;9.098;2023-01-29T09:44:45;26.70;;;21.20;;
16892;SDS011;8563;52.242;9.098;2023-01-29T09:47:27;26.53;;;20.47;;
16892;SDS011;8563;52.242;9.098;2023-01-29T09:50:04;27.07;;;20.73;;
16892;SDS011;8563;52.242;9.098;2023-01-29T09:52:39;26.17;;;19.87;;
16892;SDS011;8563;52.242;9.098;2023-01-29T09:55:14;29.17;;;20.47;;
16892;SDS011;8563;52.242;9.098;2023-01-29T09:57:53;28.23;;;21.83;;
16892;SDS011;8563;52.242;9.098;2023-01-29T10:00:28;29.60;;;21.20;;
16892;SDS011;8563;52.242;9.098;2023-01-29T10:03:18;27.63;;;21.33;;
16892;SDS011;8563;52.242;9.098;2023-01-29T10:06:19;28.73;;;20.53;;
16892;SDS011;8563;52.242;9.098;2023-01-29T10:09:06;28.10;;;21.03;;
16892;SDS011;8563;52.242;9.098;2023-01-29T10:12:01;28.93;;;21.13;;
16892;SDS011;8563;52.242;9.098;2023-01-29T10:14:44;28.93;;;22.13;;
16892;SDS011;8563;52.242;9.098;2023-01-29T10:17:35;30.43;;;21.80;;
16892;SDS011;8563;52.242;9.098;2023-01-29T10:23:25;31.23;;;22.80;;
16892;SDS011;8563;52.242;9.098;2023-01-29T10:26:00;31.77;;;23.07;;
16892;SDS011;8563;52.242;9.098;2023-01-29T10:28:33;30.17;;;23.03;;
16892;SDS011;8563;52.242;9.098;2023-01-29T10:31:12;31.37;;;22.53;;
16892;SDS011;8563;52.242;9.098;2023-01-29T10:33:49;30.77;;;22.50;;
16892;SDS011;8563;52.242;9.098;2023-01-29T10:36:27;31.23;;;22.40;;
16892;SDS011;8563;52.242;9.098;2023-01-29T10:39:04;32.27;;;24.13;;
16892;SDS011;8563;52.242;9.098;2023-01-29T10:41:51;30.27;;;22.43;;
16892;SDS011;8563;52.242;9.098;2023-01-29T10:44:37;33.20;;;23.90;;
16892;SDS011;8563;52.242;9.098;2023-01-29T10:47:26;31.17;;;23.60;;
16892;SDS011;8563;52.242;9.098;2023-01-29T10:50:12;30.00;;;22.10;;
16892;SDS011;8563;52.242;9.098;2023-01-29T10:55:59;30.60;;;22.90;;
16892;SDS011;8563;52.242;9.098;2023-01-29T10:58:44;31.87;;;24.30;;
16892;SDS011;8563;52.242;9.098;2023-01-29T11:01:21;30.17;;;22.63;;
16892;SDS011;8563;52.242;9.098;2023-01-29T11:03:56;28.07;;;22.43;;
16892;SDS011;8563;52.242;9.098;2023-01-29T11:06:31;31.10;;;21.60;;
16892;SDS011;8563;52.242;9.098;2023-01-29T11:09:07;30.97;;;23.17;;
16892;SDS011;8563;52.242;9.098;2023-01-29T11:11:49;28.47;;;21.90;;
16892;SDS011;8563;52.242;9.098;2023-01-29T11:14:25;31.37;;;22.73;;
16892;SDS011;8563;52.242;9.098;2023-01-29T11:16:59;28.30;;;21.17;;
16892;SDS011;8563;52.242;9.098;2023-01-29T11:19:35;27.23;;;20.93;;
16892;SDS011;8563;52.242;9.098;2023-01-29T11:22:11;27.87;;;21.67;;
16892;SDS011;8563;52.242;9.098;2023-01-29T11:24:46;29.40;;;21.73;;
16892;SDS011;8563;52.242;9.098;2023-01-29T11:27:41;28.20;;;21.50;;
16892;SDS011;8563;52.242;9.098;2023-01-29T11:30:18;28.70;;;22.10;;
16892;SDS011;8563;52.242;9.098;2023-01-29T11:32:56;27.47;;;21.23;;
16892;SDS011;8563;52.242;9.098;2023-01-29T11:35:37;28.33;;;21.33;;
16892;SDS011;8563;52.242;9.098;2023-01-29T11:38:16;26.33;;;20.97;;
16892;SDS011;8563;52.242;9.098;2023-01-29T11:40:51;32.97;;;22.13;;
16892;SDS011;8563;52.242;9.098;2023-01-29T11:43:27;28.53;;;20.77;;
16892;SDS011;8563;52.242;9.098;2023-01-29T11:46:01;27.77;;;21.17;;
16892;SDS011;8563;52.242;9.098;2023-01-29T11:48:39;28.47;;;21.77;;
16892;SDS011;8563;52.242;9.098;2023-01-29T11:51:19;29.00;;;21.27;;
16892;SDS011;8563;52.242;9.098;2023-01-29T11:53:53;29.13;;;21.70;;
16892;SDS011;8563;52.242;9.098;2023-01-29T11:56:31;29.87;;;21.90;;
16892;SDS011;8563;52.242;9.098;2023-01-29T11:59:12;28.33;;;21.10;;
16892;SDS011;8563;52.242;9.098;2023-01-29T12:02:02;29.23;;;21.70;;
16892;SDS011;8563;52.242;9.098;2023-01-29T12:04:43;27.47;;;20.20;;
16892;SDS011;8563;52.242;9.098;2023-01-29T12:07:15;29.07;;;21.60;;
16892;SDS011;8563;52.242;9.098;2023-01-29T12:09:51;29.80;;;21.67;;
16892;SDS011;8563;52.242;9.098;2023-01-29T12:12:30;27.40;;;19.80;;
16892;SDS011;8563;52.242;9.098;2023-01-29T12:18:02;28.90;;;21.47;;
16892;SDS011;8563;52.242;9.098;2023-01-29T12:20:40;26.97;;;20.27;;
16892;SDS011;8563;52.242;9.098;2023-01-29T12:23:21;26.30;;;20.43;;
16892;SDS011;8563;52.242;9.098;2023-01-29T12:25:58;26.90;;;20.43;;
16892;SDS011;8563;52.242;9.098;2023-01-29T12:28:53;27.93;;;20.90;;
16892;SDS011;8563;52.242;9.098;2023-01-29T12:31:40;30.00;;;20.97;;
16892;SDS011;8563;52.242;9.098;2023-01-29T12:34:22;26.67;;;19.73;;
16892;SDS011;8563;52.242;9.098;2023-01-29T12:37:03;30.30;;;21.03;;
16892;SDS011;8563;52.242;9.098;2023-01-29T12:39:44;26.57;;;20.03;;
16892;SDS011;8563;52.242;9.098;2023-01-29T12:42:17;29.57;;;20.57;;
16892;SDS011;8563;52.242;9.098;2023-01-29T12:44:53;25.93;;;20.43;;
16892;SDS011;8563;52.242;9.098;2023-01-29T12:47:30;27.67;;;20.13;;
16892;SDS011;8563;52.242;9.098;2023-01-29T12:52:50;27.03;;;20.23;;
16892;SDS011;8563;52.242;9.098;2023-01-29T12:55:26;26.17;;;20.10;;
16892;SDS011;8563;52.242;9.098;2023-01-29T12:58:01;26.37;;;19.57;;
16892;SDS011;8563;52.242;9.098;2023-01-29T13:00:37;28.03;;;19.50;;
16892;SDS011;8563;52.242;9.098;2023-01-29T13:03:16;24.27;;;18.43;;
16892;SDS011;8563;52.242;9.098;2023-01-29T13:05:54;29.63;;;19.97;;
16892;SDS011;8563;52.242;9.098;2023-01-29T13:08:29;27.37;;;20.03;;
16892;SDS011;8563;52.242;9.098;2023-01-29T13:11:07;27.00;;;20.60;;
16892;SDS011;8563;52.242;9.098;2023-01-29T13:13:46;26.60;;;19.60;;
16892;SDS011;8563;52.242;9.098;2023-01-29T13:16:24;29.37;;;20.67;;
16892;SDS011;8563;52.242;9.098;2023-01-29T13:18:59;26.77;;;20.27;;
16892;SDS011;8563;52.242;9.098;2023-01-29T13:21:36;27.33;;;20.93;;
16892;SDS011;8563;52.242;9.098;2023-01-29T13:24:12;26.77;;;20.13;;
16892;SDS011;8563;52.242;9.098;2023-01-29T13:26:46;29.30;;;21.23;;
16892;SDS011;8563;52.242;9.098;2023-01-29T13:29:20;28.27;;;20.87;;
16892;SDS011;8563;52.242;9.098;2023-01-29T13:31:55;28.53;;;20.40;;
16892;SDS011;8563;52.242;9.098;2023-01-29T13:34:30;26.47;;;20.57;;
16892;SDS011;8563;52.242;9.098;2023-01-29T13:37:08;29.47;;;20.80;;
16892;SDS011;8563;52.242;9.098;2023-01-29T13:39:45;28.40;;;21.20;;
16892;SDS011;8563;52.242;9.098;2023-01-29T13:42:19;29.47;;;23.10;;
16892;SDS011;8563;52.242;9.098;2023-01-29T13:44:54;28.60;;;21.20;;
16892;SDS011;8563;52.242;9.098;2023-01-29T13:47:29;30.93;;;22.07;;
16892;SDS011;8563;52.242;9.098;2023-01-29T13:50:04;28.23;;;21.40;;
16892;SDS011;8563;52.242;9.098;2023-01-29T13:52:38;26.23;;;19.63;;
16892;SDS011;8563;52.242;9.098;2023-01-29T13:55:19;28.13;;;20.70;;
16892;SDS011;8563;52.242;9.098;2023-01-29T13:57:56;26.30;;;19.23;;
16892;SDS011;8563;52.242;9.098;2023-01-29T14:06:37;29.50;;;20.93;;
16892;SDS011;8563;52.242;9.098;2023-01-29T14:09:30;33.00;;;21.57;;
16892;SDS011;8563;52.242;9.098;2023-01-29T14:12:10;28.00;;;19.80;;
16892;SDS011;8563;52.242;9.098;2023-01-29T14:15:31;24.40;;;18.30;;
16892;SDS011;8563;52.242;9.098;2023-01-29T14:21:00;38.13;;;27.10;;
16892;SDS011;8563;52.242;9.098;2023-01-29T14:23:38;34.50;;;22.40;;
16892;SDS011;8563;52.242;9.098;2023-01-29T14:26:21;28.17;;;19.27;;
16892;SDS011;8563;52.242;9.098;2023-01-29T14:28:57;28.00;;;19.30;;
16892;SDS011;8563;52.242;9.098;2023-01-29T14:31:39;26.10;;;18.60;;
16892;SDS011;8563;52.242;9.098;2023-01-29T14:34:15;26.80;;;19.20;;
16892;SDS011;8563;52.242;9.098;2023-01-29T14:36:53;26.90;;;19.20;;
16892;SDS011;8563;52.242;9.098;2023-01-29T14:39:28;27.07;;;17.77;;
16892;SDS011;8563;52.242;9.098;2023-01-29T14:42:12;24.13;;;18.30;;
16892;SDS011;8563;52.242;9.098;2023-01-29T14:47:51;27.23;;;18.70;;
16892;SDS011;8563;52.242;9.098;2023-01-29T14:50:38;22.90;;;16.80;;
16892;SDS011;8563;52.242;9.098;2023-01-29T14:53:16;29.07;;;18.20;;
16892;SDS011;8563;52.242;9.098;2023-01-29T14:55:54;29.33;;;20.17;;
16892;SDS011;8563;52.242;9.098;2023-01-29T14:58:33;24.93;;;18.60;;
16892;SDS011;8563;52.242;9.098;2023-01-29T15:01:13;35.43;;;24.13;;
16892;SDS011;8563;52.242;9.098;2023-01-29T15:03:53;33.50;;;23.77;;
16892;SDS011;8563;52.242;9.098;2023-01-29T15:06:30;29.57;;;19.83;;
16892;SDS011;8563;52.242;9.098;2023-01-29T15:09:13;24.53;;;17.43;;
16892;SDS011;8563;52.242;9.098;2023-01-29T15:11:49;28.20;;;18.80;;
16892;SDS011;8563;52.242;9.098;2023-01-29T15:14:29;26.03;;;18.77;;
16892;SDS011;8563;52.242;9.098;2023-01-29T15:17:06;23.77;;;16.87;;
16892;SDS011;8563;52.242;9.098;2023-01-29T15:19:48;23.77;;;16.63;;
16892;SDS011;8563;52.242;9.098;2023-01-29T15:22:21;27.57;;;18.37;;
16892;SDS011;8563;52.242;9.098;2023-01-29T15:25:04;27.13;;;17.67;;
16892;SDS011;8563;52.242;9.098;2023-01-29T15:27:40;24.87;;;17.30;;
16892;SDS011;8563;52.242;9.098;2023-01-29T15:30:13;24.73;;;18.33;;
16892;SDS011;8563;52.242;9.098;2023-01-29T15:32:48;24.77;;;16.87;;
16892;SDS011;8563;52.242;9.098;2023-01-29T15:35:25;22.90;;;17.23;;
16892;SDS011;8563;52.242;9.098;2023-01-29T15:38:01;25.53;;;18.23;;
16892;SDS011;8563;52.242;9.098;2023-01-29T15:40:36;26.43;;;18.03;;
16892;SDS011;8563;52.242;9.098;2023-01-29T15:43:17;26.27;;;18.10;;
16892;SDS011;8563;52.242;9.098;2023-01-29T15:45:52;29.37;;;18.70;;
16892;SDS011;8563;52.242;9.098;2023-01-29T15:48:28;29.10;;;18.57;;
16892;SDS011;8563;52.242;9.098;2023-01-29T15:51:04;28.17;;;19.50;;
16892;SDS011;8563;52.242;9.098;2023-01-29T15:53:40;26.40;;;18.90;;
16892;SDS011;8563;52.242;9.098;2023-01-29T15:56:16;26.37;;;20.57;;
16892;SDS011;8563;52.242;9.098;2023-01-29T15:58:50;25.93;;;19.20;;